createdAt,value
2023-02-11T00:00:40.489Z,9.57
2023-02-11T00:04:07.105Z,9.67
2023-02-11T00:07:31.018Z,9.70
2023-02-11T00:10:55.681Z,8.93
2023-02-11T00:14:20.051Z,8.70
2023-02-11T00:17:45.850Z,9.23
2023-02-11T00:21:10.726Z,9.90
2023-02-11T00:24:34.281Z,9.07
2023-02-11T00:27:57.817Z,9.93
2023-02-11T00:31:24.194Z,9.70
2023-02-11T00:34:52.957Z,9.33
2023-02-11T00:38:16.700Z,9.20
2023-02-11T00:41:40.422Z,9.70
2023-02-11T00:45:05.126Z,9.73
2023-02-11T00:48:29.606Z,10.10
2023-02-11T00:51:54.935Z,9.30
2023-02-11T00:55:18.695Z,10.20
2023-02-11T00:58:42.848Z,9.90
2023-02-11T01:02:07.119Z,10.13
2023-02-11T01:05:31.505Z,10.30
2023-02-11T01:08:57.179Z,10.60
2023-02-11T01:12:21.330Z,9.93
2023-02-11T01:15:49.809Z,9.87
2023-02-11T01:19:14.387Z,10.23
2023-02-11T01:22:39.505Z,9.33
2023-02-11T01:26:04.649Z,10.47
2023-02-11T01:29:28.209Z,9.97
2023-02-11T01:32:51.733Z,9.57
2023-02-11T01:36:15.559Z,10.20
2023-02-11T01:39:39.138Z,10.87
2023-02-11T01:43:04.095Z,10.10
2023-02-11T01:46:35.376Z,11.27
2023-02-11T01:50:02.873Z,10.57
2023-02-11T01:53:46.090Z,9.17
2023-02-11T01:57:23.349Z,9.40
2023-02-11T02:00:49.966Z,9.33
2023-02-11T02:04:18.758Z,9.30
2023-02-11T02:07:50.257Z,8.80
2023-02-11T02:11:14.693Z,9.60
2023-02-11T02:14:41.024Z,10.13
2023-02-11T02:22:54.682Z,8.57
2023-02-11T02:27:04.904Z,8.67
2023-02-11T02:31:10.760Z,8.60
2023-02-11T02:34:45.662Z,9.10
2023-02-11T02:38:19.872Z,8.23
2023-02-11T02:41:46.104Z,9.97
2023-02-11T02:45:12.855Z,9.53
2023-02-11T02:48:36.478Z,9.23
2023-02-11T02:52:27.375Z,9.53
2023-02-11T02:56:04.387Z,8.60
2023-02-11T02:59:43.961Z,9.57
2023-02-11T03:03:29.444Z,10.17
2023-02-11T03:07:01.781Z,10.07
2023-02-11T03:10:32.445Z,9.70
2023-02-11T03:13:58.409Z,11.27
2023-02-11T03:17:24.717Z,10.17
2023-02-11T03:20:54.616Z,10.60
2023-02-11T03:24:26.951Z,9.40
2023-02-11T03:28:01.544Z,9.77
2023-02-11T03:31:37.745Z,8.93
2023-02-11T03:35:09.074Z,10.10
2023-02-11T03:38:39.325Z,11.67
2023-02-11T03:42:06.976Z,8.80
2023-02-11T03:45:32.405Z,8.97
2023-02-11T03:49:04.074Z,10.47
2023-02-11T03:52:28.494Z,10.73
2023-02-11T03:55:55.082Z,10.30
2023-02-11T03:59:19.023Z,9.70
2023-02-11T04:02:45.303Z,10.60
2023-02-11T04:06:09.536Z,10.10
2023-02-11T04:09:33.119Z,9.90
2023-02-11T04:12:56.745Z,10.60
2023-02-11T04:16:20.432Z,8.47
2023-02-11T04:19:45.534Z,9.53
2023-02-11T04:23:10.187Z,9.80
2023-02-11T04:26:34.144Z,11.53
2023-02-11T04:29:57.739Z,10.90
2023-02-11T04:33:21.379Z,11.30
2023-02-11T04:36:46.824Z,11.47
2023-02-11T04:40:12.134Z,10.80
2023-02-11T04:43:35.718Z,10.90
2023-02-11T04:46:59.302Z,11.40
2023-02-11T04:50:23.205Z,11.73
2023-02-11T04:53:48.092Z,10.90
2023-02-11T04:57:11.569Z,11.70
2023-02-11T05:00:35.181Z,9.60
2023-02-11T05:03:59.195Z,9.70
2023-02-11T05:07:22.765Z,11.77
2023-02-11T05:10:49.077Z,10.90
2023-02-11T05:14:13.043Z,11.70
2023-02-11T05:17:37.275Z,12.07
2023-02-11T05:21:00.846Z,11.50
2023-02-11T05:24:24.488Z,11.03
2023-02-11T05:27:49.460Z,11.10
2023-02-11T05:31:14.588Z,11.07
2023-02-11T05:34:38.475Z,10.70
2023-02-11T05:38:02.004Z,11.07
2023-02-11T05:41:25.677Z,13.10
2023-02-11T05:44:50.852Z,11.40
2023-02-11T05:48:15.020Z,11.77
2023-02-11T05:51:38.606Z,10.80
2023-02-11T05:55:02.183Z,11.07
2023-02-11T05:58:25.994Z,11.80
2023-02-11T06:01:50.926Z,10.70
2023-02-11T06:05:14.472Z,12.07
2023-02-11T06:08:39.400Z,10.93
2023-02-11T06:12:03.603Z,11.33
2023-02-11T06:15:27.109Z,11.73
2023-02-11T06:18:52.078Z,11.07
2023-02-11T06:22:15.696Z,10.70
2023-02-11T06:25:39.204Z,10.57
2023-02-11T06:29:03.096Z,11.17
2023-02-11T06:32:45.750Z,12.30
2023-02-11T06:36:19.010Z,10.93
2023-02-11T06:39:42.625Z,10.80
2023-02-11T06:43:07.222Z,11.13
2023-02-11T06:46:30.860Z,11.50
2023-02-11T06:49:54.371Z,12.03
2023-02-11T06:53:19.366Z,11.47
2023-02-11T06:56:43.273Z,9.33
2023-02-11T07:00:09.100Z,11.40
2023-02-11T07:03:32.644Z,10.37
2023-02-11T07:06:56.247Z,11.40
2023-02-11T07:10:21.218Z,10.67
2023-02-11T07:13:45.200Z,10.33
2023-02-11T07:17:09.046Z,10.70
2023-02-11T07:20:32.601Z,10.47
2023-02-11T07:23:56.657Z,10.30
2023-02-11T07:27:21.565Z,10.87
2023-02-11T07:30:45.230Z,10.40
2023-02-11T07:34:08.902Z,9.80
2023-02-11T07:37:34.696Z,11.00
2023-02-11T07:41:01.897Z,10.63
2023-02-11T07:44:26.860Z,10.07
2023-02-11T07:47:50.624Z,9.20
2023-02-11T07:51:17.558Z,9.57
2023-02-11T07:54:41.396Z,7.40
2023-02-11T07:58:05.057Z,7.43
2023-02-11T08:01:31.154Z,10.27
2023-02-11T08:04:54.776Z,9.50
2023-02-11T08:08:18.270Z,9.60
2023-02-11T08:11:42.130Z,10.13
2023-02-11T08:15:06.354Z,10.00
2023-02-11T08:18:31.556Z,9.63
2023-02-11T08:21:58.389Z,9.87
2023-02-11T08:25:21.968Z,10.30
2023-02-11T08:28:48.450Z,9.80
2023-02-11T08:32:12.524Z,8.70
2023-02-11T08:35:39.813Z,8.40
2023-02-11T08:39:22.481Z,9.03
2023-02-11T08:42:46.104Z,8.93
2023-02-11T08:46:11.135Z,8.63
2023-02-11T08:49:35.102Z,7.17
2023-02-11T08:53:00.552Z,7.53
2023-02-11T08:56:24.998Z,7.03
2023-02-11T08:59:48.545Z,6.77
2023-02-11T09:03:12.215Z,6.27
2023-02-11T09:06:35.854Z,7.47
2023-02-11T09:10:01.116Z,7.20
2023-02-11T09:13:24.674Z,8.00
2023-02-11T09:16:49.272Z,7.53
2023-02-11T09:20:12.969Z,7.83
2023-02-11T09:23:37.129Z,6.93
2023-02-11T09:27:02.490Z,6.37
2023-02-11T09:30:26.085Z,7.70
2023-02-11T09:33:53.481Z,7.43
2023-02-11T09:37:16.944Z,7.77
2023-02-11T09:40:44.372Z,8.93
2023-02-11T09:44:19.661Z,7.23
2023-02-11T09:47:50.956Z,6.60
2023-02-11T09:51:23.734Z,7.23
2023-02-11T09:54:56.902Z,8.97
2023-02-11T09:58:27.942Z,7.23
2023-02-11T10:02:00.026Z,7.37
2023-02-11T10:05:44.323Z,6.90
2023-02-11T10:09:31.594Z,8.20
2023-02-11T10:13:17.131Z,8.17
2023-02-11T10:17:04.464Z,7.00
2023-02-11T10:20:38.131Z,7.07
2023-02-11T10:24:06.453Z,7.13
2023-02-11T10:27:34.909Z,7.10
2023-02-11T10:31:02.956Z,6.53
2023-02-11T10:34:27.941Z,7.10
2023-02-11T10:37:51.932Z,6.20
2023-02-11T10:41:23.640Z,6.67
2023-02-11T10:45:00.178Z,6.27
2023-02-11T10:48:46.453Z,6.37
2023-02-11T10:52:20.782Z,6.93
2023-02-11T10:55:53.509Z,8.97
2023-02-11T10:59:26.623Z,8.67
2023-02-11T11:02:59.380Z,9.17
2023-02-11T11:06:32.959Z,9.53
2023-02-11T11:10:02.629Z,9.23
2023-02-11T11:13:33.146Z,8.33
2023-02-11T11:16:57.179Z,8.20
2023-02-11T11:20:28.301Z,7.50
2023-02-11T11:23:59.532Z,8.27
2023-02-11T11:27:27.139Z,7.30
2023-02-11T11:30:53.201Z,7.17
2023-02-11T11:34:28.051Z,7.03
2023-02-11T11:37:59.955Z,6.03
2023-02-11T11:41:31.612Z,6.20
2023-02-11T11:45:02.398Z,5.20
2023-02-11T11:48:33.575Z,5.27
2023-02-11T11:52:09.051Z,4.63
2023-02-11T11:55:41.652Z,5.30
2023-02-11T11:59:14.059Z,5.53
2023-02-11T12:03:17.536Z,5.50
2023-02-11T12:06:55.611Z,4.30
2023-02-11T12:10:53.258Z,4.80
2023-02-11T12:14:29.791Z,4.93
2023-02-11T12:18:15.621Z,4.20
2023-02-11T12:21:50.895Z,3.80
2023-02-11T12:25:30.835Z,3.77
2023-02-11T12:29:09.255Z,3.87
2023-02-11T12:32:44.389Z,3.77
2023-02-11T12:36:23.155Z,3.97
2023-02-11T12:39:57.724Z,3.40
2023-02-11T12:43:27.120Z,3.93
2023-02-11T12:47:00.514Z,3.77
2023-02-11T12:50:36.240Z,3.20
2023-02-11T12:54:25.561Z,2.90
2023-02-11T12:57:53.162Z,2.77
2023-02-11T13:01:24.640Z,3.60
2023-02-11T13:04:55.280Z,2.40
2023-02-11T13:08:25.940Z,2.43
2023-02-11T13:11:55.800Z,2.73
2023-02-11T13:15:19.834Z,2.97
2023-02-11T13:18:53.248Z,2.50
2023-02-11T13:22:25.170Z,2.37
2023-02-11T13:25:58.997Z,2.80
2023-02-11T13:29:39.223Z,3.20
2023-02-11T13:33:22.355Z,3.23
2023-02-11T13:36:56.759Z,3.80
2023-02-11T13:40:24.938Z,2.80
2023-02-11T13:44:02.881Z,3.33
2023-02-11T13:47:34.510Z,3.00
2023-02-11T13:51:01.965Z,3.10
2023-02-11T13:54:33.748Z,4.03
2023-02-11T13:58:39.796Z,3.93
2023-02-11T14:02:38.603Z,5.33
2023-02-11T14:06:37.697Z,4.10
2023-02-11T14:10:01.601Z,3.63
2023-02-11T14:13:28.398Z,3.17
2023-02-11T14:17:35.488Z,4.00
2023-02-11T14:21:13.146Z,5.30
2023-02-11T14:24:54.389Z,5.20
2023-02-11T14:28:32.717Z,3.83
2023-02-11T14:32:06.990Z,3.33
2023-02-11T14:35:40.800Z,3.53
2023-02-11T14:39:16.274Z,6.20
2023-02-11T14:42:41.295Z,4.90
2023-02-11T14:46:05.798Z,6.27
2023-02-11T14:49:34.633Z,6.20
2023-02-11T14:53:02.465Z,5.47
2023-02-11T14:56:31.111Z,5.50
2023-02-11T15:00:02.615Z,4.93
2023-02-11T15:03:34.616Z,4.60
2023-02-11T15:07:04.344Z,5.43
2023-02-11T15:10:36.179Z,4.20
2023-02-11T15:14:09.969Z,3.40
2023-02-11T15:17:35.545Z,3.40
2023-02-11T15:20:59.214Z,3.40
2023-02-11T15:24:28.621Z,5.17
2023-02-11T15:27:56.549Z,4.93
2023-02-11T15:31:24.201Z,5.37
2023-02-11T15:34:52.152Z,6.07
2023-02-11T15:38:16.002Z,7.80
2023-02-11T15:41:40.356Z,7.50
2023-02-11T15:45:26.039Z,5.93
2023-02-11T15:48:53.213Z,5.83
2023-02-11T15:52:26.996Z,6.40
2023-02-11T15:55:53.930Z,6.07
2023-02-11T15:59:21.965Z,6.70
2023-02-11T16:02:48.763Z,8.37
2023-02-11T16:06:25.305Z,8.53
2023-02-11T16:09:59.658Z,8.63
2023-02-11T16:13:24.413Z,10.47
2023-02-11T16:16:52.671Z,9.27
2023-02-11T16:20:20.771Z,8.90
2023-02-11T16:23:52.056Z,8.03
2023-02-11T16:27:25.302Z,8.30
2023-02-11T16:30:55.507Z,6.93
2023-02-11T16:34:22.247Z,8.60
2023-02-11T16:37:45.710Z,7.30
2023-02-11T16:41:11.837Z,5.70
2023-02-11T16:44:36.867Z,7.17
2023-02-11T16:48:02.104Z,6.50
2023-02-11T16:51:26.062Z,4.73
2023-02-11T16:54:49.713Z,4.93
2023-02-11T16:58:13.220Z,7.33
2023-02-11T17:01:40.721Z,8.03
2023-02-11T17:05:08.887Z,6.30
2023-02-11T17:08:32.901Z,6.20
2023-02-11T17:11:56.309Z,4.80
2023-02-11T17:15:20.023Z,4.90
2023-02-11T17:18:44.897Z,4.93
2023-02-11T17:22:08.596Z,4.70
2023-02-11T17:25:32.639Z,3.87
2023-02-11T17:28:56.429Z,4.23
2023-02-11T17:32:20.021Z,3.50
2023-02-11T17:35:44.878Z,4.70
2023-02-11T17:39:09.451Z,4.63
2023-02-11T17:42:33.046Z,4.30
2023-02-11T17:45:56.600Z,5.20
2023-02-11T17:49:20.390Z,5.43
2023-02-11T17:52:45.292Z,4.63
2023-02-11T17:56:10.214Z,5.10
2023-02-11T17:59:35.477Z,5.43
2023-02-11T18:03:02.709Z,5.50
2023-02-11T18:06:26.949Z,5.37
2023-02-11T18:09:52.112Z,6.33
2023-02-11T18:13:15.581Z,6.00
2023-02-11T18:16:42.944Z,4.93
2023-02-11T18:20:08.925Z,4.70
2023-02-11T18:23:32.533Z,4.43
2023-02-11T18:26:57.362Z,4.47
2023-02-11T18:30:22.090Z,4.60
2023-02-11T18:33:46.040Z,6.80
2023-02-11T18:37:10.264Z,5.60
2023-02-11T18:40:35.517Z,4.77
2023-02-11T18:44:03.062Z,4.50
2023-02-11T18:47:27.177Z,4.87
2023-02-11T18:50:50.691Z,6.30
2023-02-11T18:54:14.755Z,6.53
2023-02-11T18:57:38.220Z,5.00
2023-02-11T19:01:03.252Z,6.53
2023-02-11T19:04:28.362Z,7.00
2023-02-11T19:07:51.918Z,6.20
2023-02-11T19:11:18.650Z,5.40
2023-02-11T19:14:42.327Z,5.90
2023-02-11T19:18:07.514Z,5.80
2023-02-11T19:21:31.269Z,5.13
2023-02-11T19:24:54.801Z,5.10
2023-02-11T19:28:18.386Z,4.57
2023-02-11T19:31:42.301Z,4.70
2023-02-11T19:35:08.588Z,4.67
2023-02-11T19:38:32.327Z,4.23
2023-02-11T19:41:55.855Z,4.30
2023-02-11T19:45:19.514Z,5.20
2023-02-11T19:48:43.025Z,4.60
2023-02-11T19:52:08.016Z,5.20
2023-02-11T19:55:31.497Z,5.13
2023-02-11T19:58:55.063Z,5.80
2023-02-11T20:02:18.891Z,5.10
2023-02-11T20:05:46.958Z,5.20
2023-02-11T20:09:15.594Z,5.30
2023-02-11T20:12:39.171Z,5.13
2023-02-11T20:16:12.284Z,5.50
2023-02-11T20:19:36.527Z,4.50
2023-02-11T20:22:59.996Z,5.13
2023-02-11T20:26:28.980Z,4.93
2023-02-11T20:29:52.565Z,5.50
2023-02-11T20:33:16.044Z,5.33
2023-02-11T20:36:40.441Z,5.17
2023-02-11T20:40:04.410Z,4.33
2023-02-11T20:43:29.167Z,5.40
2023-02-11T20:46:55.528Z,5.80
2023-02-11T20:50:19.299Z,4.83
2023-02-11T20:53:47.742Z,5.53
2023-02-11T20:57:11.548Z,4.43
2023-02-11T21:00:38.011Z,5.63
2023-02-11T21:04:04.443Z,5.00
2023-02-11T21:07:29.386Z,4.70
2023-02-11T21:10:52.950Z,4.63
2023-02-11T21:14:17.848Z,4.80
2023-02-11T21:17:42.588Z,4.63
2023-02-11T21:21:07.153Z,4.80
2023-02-11T21:24:31.688Z,5.27
2023-02-11T21:27:55.114Z,5.00
2023-02-11T21:31:22.808Z,5.10
2023-02-11T21:34:47.799Z,4.80
2023-02-11T21:38:11.312Z,4.90
2023-02-11T21:41:35.282Z,4.73
2023-02-11T21:44:58.956Z,4.73
2023-02-11T21:48:23.798Z,4.97
2023-02-11T21:51:48.722Z,4.23
2023-02-11T21:55:12.701Z,4.77
2023-02-11T21:58:37.289Z,5.50
2023-02-11T22:02:00.887Z,5.63
2023-02-11T22:05:25.186Z,4.97
2023-02-11T22:08:50.790Z,5.43
2023-02-11T22:12:14.357Z,5.10
2023-02-11T22:15:37.950Z,5.27
2023-02-11T22:19:03.439Z,5.03
2023-02-11T22:22:27.189Z,6.40
2023-02-11T22:25:52.362Z,5.50
2023-02-11T22:29:16.336Z,4.90
2023-02-11T22:32:42.370Z,6.50
2023-02-11T22:36:09.885Z,5.17
2023-02-11T22:39:33.602Z,6.00
2023-02-11T22:42:59.036Z,5.10
2023-02-11T22:46:22.571Z,5.90
2023-02-11T22:49:46.063Z,4.90
2023-02-11T22:53:09.702Z,5.63
2023-02-11T22:56:35.901Z,5.47
2023-02-11T23:00:00.823Z,5.93
2023-02-11T23:03:26.480Z,5.87
2023-02-11T23:06:50.708Z,6.70
2023-02-11T23:10:15.747Z,5.63
2023-02-11T23:13:41.967Z,5.67
2023-02-11T23:17:07.125Z,5.50
2023-02-11T23:20:30.724Z,5.30
2023-02-11T23:23:57.930Z,5.47
2023-02-11T23:27:21.696Z,5.47
2023-02-11T23:30:45.279Z,6.10
2023-02-11T23:34:10.826Z,6.40
2023-02-11T23:37:34.375Z,5.90
2023-02-11T23:40:57.995Z,5.53
2023-02-11T23:44:21.988Z,5.60
2023-02-11T23:47:45.761Z,5.67
2023-02-11T23:51:11.190Z,4.93
2023-02-11T23:54:34.613Z,5.60
2023-02-11T23:57:58.051Z,6.90
